createdAt,value
2023-02-24T03:52:32.502Z,13.00
2023-02-24T03:58:35.949Z,11.20
2023-02-24T04:04:16.378Z,11.00
2023-02-24T04:10:06.445Z,11.10
2023-02-24T08:51:28.674Z,11.70
2023-02-24T08:56:35.175Z,13.30
2023-02-24T09:02:03.663Z,12.50
2023-02-24T09:07:15.503Z,12.20
2023-02-24T09:12:25.096Z,12.30
2023-02-24T09:17:45.161Z,12.60
2023-02-24T09:23:06.191Z,12.60
2023-02-24T09:28:25.140Z,12.50
2023-02-24T09:33:39.344Z,13.00
2023-02-24T09:39:01.416Z,13.00
2023-02-24T09:44:19.908Z,12.70
2023-02-24T09:49:46.725Z,13.00
2023-02-24T09:55:11.335Z,13.40
2023-02-24T10:00:33.576Z,13.70
2023-02-24T10:05:59.070Z,13.80
2023-02-24T10:11:09.157Z,14.00
2023-02-24T10:16:23.989Z,14.20
2023-02-24T10:21:49.673Z,14.20
2023-02-24T10:27:16.883Z,14.20
2023-02-24T10:32:41.520Z,14.20
2023-02-24T10:37:44.569Z,13.90
2023-02-24T10:42:48.864Z,14.00
2023-02-24T10:47:59.916Z,14.10
2023-02-24T10:53:26.526Z,14.10
2023-02-24T10:58:56.876Z,14.10
2023-02-24T11:04:22.808Z,14.00
2023-02-24T11:09:29.501Z,14.10
2023-02-24T11:15:09.905Z,14.00
2023-02-24T11:20:51.262Z,13.90
2023-02-24T11:26:00.844Z,14.00
2023-02-24T11:31:37.108Z,13.90
2023-02-24T11:37:10.641Z,14.00
2023-02-24T11:42:22.548Z,14.10
2023-02-24T11:47:41.483Z,14.00
2023-02-24T11:52:49.551Z,14.00
2023-02-24T11:57:56.708Z,14.00
2023-02-24T12:03:58.102Z,13.70
2023-02-24T12:09:14.227Z,13.20
2023-02-24T12:14:47.806Z,13.40
2023-02-24T12:20:03.957Z,14.00
2023-02-24T12:25:11.931Z,14.60
2023-02-24T12:30:48.779Z,14.70
2023-02-24T12:37:10.336Z,14.10
2023-02-24T12:42:31.492Z,13.90
2023-02-24T12:47:43.050Z,14.50
2023-02-24T12:53:20.598Z,14.90
2023-02-24T12:58:32.397Z,15.10
2023-02-24T13:04:11.706Z,15.20
2023-02-24T13:09:46.399Z,14.60
2023-02-24T13:14:50.365Z,14.80
2023-02-24T13:19:56.131Z,15.00
2023-02-24T13:25:21.051Z,14.80
2023-02-24T13:30:39.501Z,14.80
2023-02-24T13:35:41.930Z,14.70
2023-02-24T13:40:44.116Z,14.70
2023-02-24T13:45:58.236Z,14.60
2023-02-24T13:51:52.598Z,14.60
2023-02-24T13:57:07.210Z,14.70
2023-02-24T14:02:21.102Z,14.80
2023-02-24T14:07:35.949Z,14.60
2023-02-24T14:12:42.482Z,14.50
2023-02-24T14:17:53.983Z,14.50
2023-02-24T14:22:58.973Z,14.50
2023-02-24T14:28:01.826Z,14.30
2023-02-24T14:33:07.847Z,14.30
2023-02-24T14:38:39.838Z,14.40
2023-02-24T14:43:43.415Z,14.10
2023-02-24T14:48:51.792Z,14.10
2023-02-24T14:53:59.829Z,14.20
2023-02-24T14:59:35.104Z,14.30
2023-02-24T15:04:43.877Z,14.10
2023-02-24T15:09:48.484Z,14.00
2023-02-24T15:15:00.808Z,14.10
2023-02-24T15:20:05.458Z,14.00
2023-02-24T15:25:19.239Z,14.00
2023-02-24T15:30:38.424Z,14.20
2023-02-24T15:35:50.927Z,14.10
2023-02-24T15:40:57.699Z,14.00
2023-02-24T15:46:00.445Z,14.00
2023-02-24T15:51:07.006Z,14.10
2023-02-24T15:56:09.255Z,14.00
2023-02-24T16:01:13.554Z,13.80
2023-02-24T16:06:21.402Z,13.90
2023-02-24T16:11:40.668Z,13.60
2023-02-24T16:16:43.899Z,12.90
2023-02-24T16:21:46.524Z,12.60
2023-02-24T16:26:51.635Z,12.60
2023-02-24T16:31:54.113Z,12.10
2023-02-24T16:36:56.228Z,12.00
2023-02-24T16:41:59.498Z,11.90
2023-02-24T16:47:01.843Z,11.80
2023-02-24T16:52:04.123Z,11.80
2023-02-24T16:57:06.612Z,11.60
2023-02-24T17:02:21.918Z,11.50
2023-02-24T17:07:24.309Z,11.60
2023-02-24T17:12:26.436Z,11.50
2023-02-24T17:17:28.560Z,11.90
2023-02-24T23:11:34.927Z,11.60
2023-02-24T23:16:38.884Z,7.70
2023-02-24T23:21:45.378Z,7.90
2023-02-24T23:26:54.098Z,7.80
2023-02-24T23:31:57.386Z,7.90
2023-02-24T23:36:59.559Z,7.80
2023-02-24T23:42:01.742Z,7.90
2023-02-24T23:47:05.103Z,7.80
2023-02-24T23:52:08.448Z,7.70
2023-02-24T23:57:10.457Z,8.00
